createdAt,value
2023-04-02T06:18:21.235Z,100993.06
2023-04-02T06:53:27.177Z,101061.81
2023-04-02T06:56:42.180Z,101063.53
2023-04-02T06:59:45.152Z,101072.63
2023-04-02T07:02:47.788Z,101073.28
2023-04-02T07:05:50.456Z,101079.38
2023-04-02T07:08:54.326Z,101079.06
2023-04-02T07:11:56.858Z,101078.25
2023-04-02T07:14:59.442Z,101096.72
2023-04-02T07:18:02.001Z,101105.34
2023-04-02T07:21:04.620Z,101092.41
2023-04-02T07:24:08.892Z,101101.22
2023-04-02T07:27:11.826Z,101107.97
2023-04-02T07:30:14.501Z,101104.13
2023-04-02T07:33:18.960Z,101107.59
2023-04-02T07:36:24.014Z,101105.44
2023-04-02T07:39:27.869Z,101121.88
2023-04-02T07:42:30.370Z,101117.53
2023-04-02T07:45:33.280Z,101131.22
2023-04-02T07:48:36.191Z,101133.38
2023-04-02T07:51:38.664Z,101128.13
2023-04-02T07:58:36.892Z,101136.34
2023-04-02T08:02:19.308Z,101131.59
2023-04-02T08:06:10.862Z,101156.84
2023-04-02T08:09:51.955Z,101157.28
2023-04-02T08:13:44.292Z,101165.06
2023-04-02T08:16:47.985Z,101175.13
2023-04-02T08:19:55.016Z,101170.34
2023-04-02T08:22:58.309Z,101191.13
2023-04-02T08:26:00.871Z,101192.44
2023-04-02T08:29:05.166Z,101202.06
2023-04-02T08:32:08.053Z,101208.13
2023-04-02T08:35:11.919Z,101216.28
2023-04-02T08:38:15.898Z,101211.06
2023-04-02T08:41:27.453Z,101219.66
2023-04-02T08:44:42.875Z,101197.03
2023-04-02T08:47:47.293Z,101196.59
2023-04-02T08:50:51.064Z,101205.97
2023-04-02T08:53:56.732Z,101213.50
2023-04-02T08:57:04.968Z,101215.19
2023-04-02T09:00:26.139Z,101219.03
2023-04-02T09:03:31.586Z,101223.03
2023-04-02T09:06:34.828Z,101231.41
2023-04-02T09:09:39.153Z,101253.31
2023-04-02T09:12:44.077Z,101248.16
2023-04-02T09:15:48.782Z,101260.28
2023-04-02T09:18:53.643Z,101258.38
2023-04-02T09:22:06.010Z,101257.13
2023-04-02T09:25:15.856Z,101245.81
2023-04-02T09:28:20.299Z,101262.53
2023-04-02T09:31:39.097Z,101263.34
2023-04-02T09:34:41.689Z,101250.75
2023-04-02T09:37:45.827Z,101266.13
2023-04-02T09:40:51.720Z,101271.88
2023-04-02T09:44:13.710Z,101275.41
2023-04-02T09:47:27.113Z,101291.06
2023-04-02T09:50:32.863Z,101299.00
2023-04-02T09:53:42.283Z,101289.97
2023-04-02T09:57:01.595Z,101296.84
2023-04-02T10:00:30.684Z,101300.16
2023-04-02T10:03:36.646Z,101297.88
2023-04-02T10:06:50.297Z,101312.38
2023-04-02T10:09:58.533Z,101305.31
2023-04-02T10:13:07.169Z,101307.16
2023-04-02T10:16:14.188Z,101315.72
2023-04-02T10:19:26.423Z,101311.84
2023-04-02T10:22:29.603Z,101330.06
2023-04-02T10:25:41.393Z,101328.22
2023-04-02T10:29:00.195Z,101341.03
2023-04-02T10:32:09.335Z,101342.09
2023-04-02T10:35:20.794Z,101339.97
2023-04-02T10:38:38.708Z,101355.81
2023-04-02T10:41:50.366Z,101353.81
2023-04-02T10:45:00.802Z,101345.00
2023-04-02T10:48:16.481Z,101353.97
2023-04-02T10:51:33.621Z,101351.34
2023-04-02T10:54:46.742Z,101363.59
2023-04-02T10:57:49.511Z,101375.09
2023-04-02T11:00:55.558Z,101375.22
2023-04-02T11:04:02.458Z,101365.50
2023-04-02T11:07:14.403Z,101371.63
2023-04-02T11:10:20.732Z,101371.13
2023-04-02T11:13:27.163Z,101374.69
2023-04-02T11:16:30.310Z,101375.91
2023-04-02T11:19:35.972Z,101376.69
2023-04-02T11:22:39.853Z,101380.06
2023-04-02T11:25:43.559Z,101389.00
2023-04-02T11:28:46.717Z,101392.03
2023-04-02T11:31:51.543Z,101398.59
2023-04-02T11:35:26.436Z,101402.59
2023-04-02T11:38:54.959Z,101389.66
2023-04-02T11:42:06.478Z,101419.19
2023-04-02T11:45:52.924Z,101414.81
2023-04-02T11:49:35.336Z,101435.16
2023-04-02T11:52:51.997Z,101432.03
2023-04-02T11:56:17.697Z,101427.19
2023-04-02T11:59:25.833Z,101425.13
2023-04-02T12:02:35.841Z,101444.34
2023-04-02T12:05:43.812Z,101443.22
2023-04-02T12:08:58.903Z,101447.41
2023-04-02T12:12:18.738Z,101455.94
2023-04-02T12:15:45.005Z,101445.19
2023-04-02T12:18:51.247Z,101463.31
2023-04-02T12:21:54.290Z,101462.88
2023-04-02T12:25:01.629Z,101475.28
2023-04-02T12:28:17.813Z,101484.66
2023-04-02T12:31:25.172Z,101473.28
2023-04-02T12:34:30.017Z,101481.50
2023-04-02T12:37:33.280Z,101477.25
2023-04-02T12:40:35.903Z,101482.94
2023-04-02T12:43:40.145Z,101474.16
2023-04-02T12:46:43.325Z,101475.22
2023-04-02T12:49:46.303Z,101488.88
2023-04-02T12:52:51.550Z,101491.59
2023-04-02T12:55:55.523Z,101492.63
2023-04-02T12:59:00.344Z,101510.88
2023-04-02T13:02:05.072Z,101500.28
2023-04-02T13:05:09.690Z,101503.19
2023-04-02T13:08:18.737Z,101511.97
2023-04-02T13:11:22.642Z,101531.13
2023-04-02T13:14:27.510Z,101517.91
2023-04-02T13:17:44.557Z,101495.66
2023-04-02T13:20:58.147Z,101527.47
2023-04-02T13:24:00.683Z,101533.38
2023-04-02T13:27:04.527Z,101510.94
2023-04-02T13:30:21.627Z,101516.44
2023-04-02T13:33:24.179Z,101512.28
2023-04-02T13:36:29.185Z,101512.16
2023-04-02T13:39:31.803Z,101537.38
2023-04-02T13:42:34.259Z,101535.97
2023-04-02T13:45:40.102Z,101532.22
2023-04-02T13:48:42.675Z,101544.94
2023-04-02T13:51:47.456Z,101547.09
2023-04-02T13:54:52.943Z,101556.59
2023-04-02T13:57:56.594Z,101552.16
2023-04-02T14:01:01.981Z,101559.34
2023-04-02T14:04:06.614Z,101556.91
2023-04-02T14:07:25.886Z,101570.06
2023-04-02T14:10:41.686Z,101581.19
2023-04-02T14:14:01.922Z,101577.31
2023-04-02T14:17:14.924Z,101566.50
2023-04-02T14:20:31.964Z,101566.25
2023-04-02T14:23:49.720Z,101578.69
2023-04-02T14:27:04.595Z,101565.66
2023-04-02T14:30:16.376Z,101566.84
2023-04-02T14:33:31.695Z,101588.91
2023-04-02T14:36:45.960Z,101592.00
2023-04-02T14:39:59.859Z,101603.19
2023-04-02T14:43:06.281Z,101591.63
2023-04-02T14:46:11.140Z,101586.34
2023-04-02T14:49:23.946Z,101585.38
2023-04-02T14:52:29.644Z,101578.84
2023-04-02T14:55:37.990Z,101582.34
2023-04-02T14:58:46.740Z,101585.31
2023-04-02T15:01:51.322Z,101599.69
2023-04-02T15:05:01.362Z,101604.81
2023-04-02T15:08:07.361Z,101603.78
2023-04-02T15:11:16.280Z,101604.09
2023-04-02T15:14:22.122Z,101602.19
2023-04-02T15:17:24.767Z,101609.34
2023-04-02T15:20:38.009Z,101614.06
2023-04-02T15:23:51.640Z,101612.69
2023-04-02T15:27:09.356Z,101609.56
2023-04-02T15:30:19.406Z,101618.97
2023-04-02T15:33:39.484Z,101610.38
2023-04-02T15:37:06.370Z,101608.84
2023-04-02T15:40:24.838Z,101618.63
2023-04-02T15:43:31.219Z,101619.84
2023-04-02T15:46:44.647Z,101628.69
2023-04-02T15:49:57.892Z,101647.66
2023-04-02T15:53:10.789Z,101645.81
2023-04-02T15:56:22.995Z,101648.28
2023-04-02T15:59:41.909Z,101645.72
2023-04-02T16:02:58.376Z,101641.94
2023-04-02T16:06:21.596Z,101654.88
2023-04-02T16:09:29.305Z,101653.34
2023-04-02T16:12:34.354Z,101664.06
2023-04-02T16:15:39.458Z,101654.53
2023-04-02T16:18:51.160Z,101668.28
2023-04-02T16:22:01.852Z,101674.31
2023-04-02T16:25:17.178Z,101682.06
2023-04-02T16:28:25.354Z,101674.44
2023-04-02T16:31:33.954Z,101683.41
2023-04-02T16:34:44.848Z,101683.47
2023-04-02T16:37:52.862Z,101687.09
2023-04-02T16:41:08.438Z,101694.06
2023-04-02T16:44:25.149Z,101706.19
2023-04-02T16:47:51.075Z,101703.72
2023-04-02T16:50:59.953Z,101716.03
2023-04-02T16:54:09.091Z,101714.28
2023-04-02T16:57:25.060Z,101729.03
2023-04-02T17:00:34.919Z,101722.97
2023-04-02T17:03:56.913Z,101748.28
2023-04-02T17:07:11.154Z,101736.97
2023-04-02T17:10:24.984Z,101737.03
2023-04-02T17:13:39.357Z,101754.44
2023-04-02T17:16:44.404Z,101739.69
2023-04-02T17:19:50.396Z,101741.41
2023-04-02T17:22:54.230Z,101751.91
2023-04-02T17:26:01.542Z,101763.28
2023-04-02T17:29:09.292Z,101759.88
2023-04-02T17:32:19.088Z,101754.63
2023-04-02T17:35:29.828Z,101769.47
2023-04-02T17:38:40.630Z,101771.19
2023-04-02T17:41:48.937Z,101779.03
2023-04-02T17:45:06.713Z,101787.75
2023-04-02T17:48:19.015Z,101790.38
2023-04-02T17:51:30.229Z,101791.25
2023-04-02T17:54:45.115Z,101794.72
2023-04-02T17:58:01.062Z,101797.34
2023-04-02T18:01:12.739Z,101799.94
2023-04-02T18:04:28.940Z,101793.84
2023-04-02T18:07:39.305Z,101806.00
2023-04-02T18:10:53.967Z,101809.47
2023-04-02T18:14:00.048Z,101811.22
2023-04-02T18:17:12.592Z,101821.69
2023-04-02T18:20:28.216Z,101817.31
2023-04-02T18:30:37.166Z,101848.59
2023-04-02T18:33:55.986Z,101856.38
2023-04-02T18:37:09.276Z,101856.38
2023-04-02T18:40:29.763Z,101860.75
2023-04-02T18:43:44.845Z,101870.28
2023-04-02T18:46:51.617Z,101873.72
2023-04-02T18:50:04.449Z,101874.56
2023-04-02T18:53:12.934Z,101882.38
2023-04-02T18:56:19.786Z,101887.59
2023-04-02T18:59:33.440Z,101885.84
2023-04-02T19:02:43.302Z,101900.59
2023-04-02T19:05:50.521Z,101900.50
2023-04-02T19:08:59.461Z,101903.06
2023-04-02T19:12:03.825Z,101907.47
